Time;durP1;ratioP1;P1;durP2;ratioP2;P2;SDS_P1;SDS_P2;PMS_P1;PMS_P2;Temp;Humidity;BMP_temperature;BMP_pressure;BME280_temperature;BME280_humidity;BME280_pressure;Samples;Min_cycle;Max_cycle;Signal;HPM_P1;HPM_P2
2023/07/31 00:02:38;;;;;;;0.22;0.08;;;;;;;21.14;100.00;100998.06;10534830;28;20036;-79
2023/07/31 00:07:40;;;;;;;0.13;0.10;;;;;;;21.03;100.00;100998.22;10535104;28;20043;-80
2023/07/31 00:12:43;;;;;;;0.70;0.43;;;;;;;21.07;100.00;100992.03;10513252;28;20063;-78
2023/07/31 00:17:45;;;;;;;0.10;0.00;;;;;;;20.96;100.00;100992.22;10546899;28;20040;-78
2023/07/31 00:22:46;;;;;;;0.00;0.00;;;;;;;21.49;100.00;100981.69;10533953;28;20147;-78
2023/07/31 00:27:48;;;;;;;0.08;0.08;;;;;;;20.77;100.00;100982.00;10517225;28;20043;-78
2023/07/31 00:32:50;;;;;;;0.00;0.00;;;;;;;21.48;100.00;100979.97;10534055;28;20048;-79
2023/07/31 00:37:51;;;;;;;0.00;0.00;;;;;;;21.01;100.00;100965.97;10534037;28;20161;-79
2023/07/31 00:42:53;;;;;;;0.00;0.00;;;;;;;21.05;100.00;100957.16;10533865;28;20039;-78
2023/07/31 00:47:55;;;;;;;0.00;0.00;;;;;;;21.24;100.00;100950.72;10533849;28;20048;-79
2023/07/31 00:52:58;;;;;;;0.10;0.00;;;;;;;21.27;100.00;100948.91;10533923;28;20051;-79
2023/07/31 00:57:59;;;;;;;0.20;0.10;;;;;;;21.15;100.00;100939.53;10527587;28;20048;-78
2023/07/31 01:03:02;;;;;;;0.00;0.00;;;;;;;21.56;100.00;100935.28;10526665;28;20050;-78
2023/07/31 01:08:12;;;;;;;0.00;0.00;;;;;;;21.53;100.00;100925.72;10526758;28;20048;-78
2023/07/31 01:13:15;;;;;;;0.00;0.00;;;;;;;21.60;100.00;100920.38;10525531;28;20048;-77
2023/07/31 01:18:16;;;;;;;0.00;0.00;;;;;;;21.41;100.00;100920.69;10515816;28;20093;-77
2023/07/31 01:23:34;;;;;;;0.10;0.10;;;;;;;21.75;100.00;100909.59;10508997;28;20483;-79
2023/07/31 01:28:42;;;;;;;0.50;0.30;;;;;;;21.65;100.00;100914.16;10509182;28;20044;-78
2023/07/31 01:33:45;;;;;;;0.32;0.22;;;;;;;21.98;100.00;100906.47;10525880;28;20032;-78
2023/07/31 01:38:47;;;;;;;0.52;0.20;;;;;;;22.03;100.00;100898.50;10525511;28;20525;-78
2023/07/31 01:43:48;;;;;;;0.52;0.40;;;;;;;22.41;100.00;100894.19;10525248;28;20044;-78
2023/07/31 01:48:51;;;;;;;0.20;0.10;;;;;;;22.34;100.00;100893.41;10525467;28;20040;-77
2023/07/31 01:53:53;;;;;;;7.03;0.77;;;;;;;22.47;100.00;100891.41;10508525;28;20044;-78
2023/07/31 01:58:54;;;;;;;1.45;0.82;;;;;;;22.38;100.00;100886.31;10508326;28;20081;-78
2023/07/31 02:03:57;;;;;;;0.40;0.30;;;;;;;22.38;100.00;100883.69;10524348;28;20447;-78
2023/07/31 02:08:59;;;;;;;3.50;0.82;;;;;;;22.60;100.00;100878.84;10524293;28;20055;-77
2023/07/31 02:14:00;;;;;;;2.20;1.10;;;;;;;22.53;100.00;100868.50;10524037;28;20044;-77
2023/07/31 02:19:02;;;;;;;0.77;0.40;;;;;;;22.25;100.00;100871.78;10524036;28;20058;-77
2023/07/31 02:24:04;;;;;;;1.42;0.98;;;;;;;22.47;100.00;100866.94;10497295;28;20048;-77
2023/07/31 02:29:06;;;;;;;2.83;0.45;;;;;;;22.27;100.00;100865.59;10506828;28;20486;-77
2023/07/31 02:34:07;;;;;;;1.42;0.82;;;;;;;22.40;100.00;100865.34;10523483;28;20048;-77
2023/07/31 02:39:09;;;;;;;1.65;0.82;;;;;;;22.19;100.00;100851.78;10539756;28;20087;-77
2023/07/31 02:44:13;;;;;;;2.38;0.85;;;;;;;22.33;100.00;100848.84;10522850;28;20048;-77
2023/07/31 02:49:15;;;;;;;2.22;0.77;;;;;;;22.25;100.00;100850.78;10522977;28;20474;-76
2023/07/31 02:54:17;;;;;;;0.65;0.47;;;;;;;22.36;100.00;100838.28;10522316;28;20118;-76
2023/07/31 02:59:20;;;;;;;0.95;0.63;;;;;;;22.46;100.00;100845.03;10522701;28;20075;-76
2023/07/31 03:04:22;;;;;;;0.20;0.20;;;;;;;22.01;100.00;100842.56;10522230;28;20122;-77
2023/07/31 03:09:23;;;;;;;2.03;1.10;;;;;;;22.28;100.00;100846.31;10521859;28;20517;-76
2023/07/31 03:14:26;;;;;;;0.75;0.75;;;;;;;22.56;100.00;100844.81;10522062;28;20394;-77
2023/07/31 03:19:30;;;;;;;0.43;0.40;;;;;;;22.23;100.00;100848.19;10504537;28;20087;-76
2023/07/31 03:24:32;;;;;;;0.73;0.45;;;;;;;22.87;100.00;100851.91;10521385;28;20044;-77
2023/07/31 03:29:34;;;;;;;0.98;0.55;;;;;;;22.36;100.00;100848.78;10504881;28;20469;-76
2023/07/31 03:34:35;;;;;;;0.68;0.60;;;;;;;22.22;100.00;100850.88;10521395;28;20070;-76
2023/07/31 03:39:39;;;;;;;0.55;0.30;;;;;;;22.49;100.00;100847.59;10504860;28;20097;-76
2023/07/31 03:44:41;;;;;;;0.82;0.60;;;;;;;21.92;100.00;100845.44;10521343;28;20521;-77
2023/07/31 03:49:44;;;;;;;0.63;0.45;;;;;;;23.05;100.00;100843.53;10521167;28;20495;-76
2023/07/31 03:54:51;;;;;;;2.92;0.85;;;;;;;22.49;100.00;100849.34;10504350;28;20051;-76
2023/07/31 03:59:53;;;;;;;0.47;0.47;;;;;;;22.47;100.00;100844.16;10521124;28;20134;-75
2023/07/31 04:04:55;;;;;;;0.38;0.38;;;;;;;23.55;100.00;100839.56;10521036;28;20074;-76
2023/07/31 04:09:57;;;;;;;2.45;1.40;;;;;;;23.41;100.00;100832.94;10520885;28;20052;-76
2023/07/31 04:14:59;;;;;;;1.55;0.60;;;;;;;22.66;100.00;100841.06;10520603;28;20094;-76
2023/07/31 04:20:00;;;;;;;0.22;0.22;;;;;;;22.14;100.00;100853.66;10520707;28;20090;-76
2023/07/31 04:25:02;;;;;;;0.40;0.30;;;;;;;22.50;100.00;100849.34;10503998;28;20059;-76
2023/07/31 04:30:04;;;;;;;3.30;0.90;;;;;;;22.06;100.00;100835.50;10514127;28;20048;-77
2023/07/31 04:35:06;;;;;;;0.57;0.30;;;;;;;22.65;100.00;100834.09;10529676;28;20051;-76
2023/07/31 04:40:08;;;;;;;0.50;0.47;;;;;;;22.66;100.00;100838.44;10527622;28;20495;-76
2023/07/31 04:45:10;;;;;;;5.47;1.00;;;;;;;22.93;100.00;100836.00;10543757;28;20044;-76
2023/07/31 04:50:11;;;;;;;0.63;0.30;;;;;;;22.58;100.00;100816.78;10544559;28;20143;-76
2023/07/31 04:55:13;;;;;;;1.45;1.23;;;;;;;22.68;100.00;100813.00;10545566;28;20036;-77
2023/07/31 05:00:15;;;;;;;3.30;0.63;;;;;;;23.20;100.00;100815.13;10527374;28;20040;-76
2023/07/31 05:05:17;;;;;;;0.75;0.22;;;;;;;22.79;100.00;100813.59;10526935;28;20040;-75
2023/07/31 05:10:18;;;;;;;0.65;0.40;;;;;;;22.80;100.00;100815.31;10526804;28;20402;-76
2023/07/31 05:15:20;;;;;;;0.15;0.10;;;;;;;22.35;100.00;100805.91;10543572;28;20475;-77
2023/07/31 05:20:22;;;;;;;1.65;0.10;;;;;;;22.66;100.00;100799.06;10544519;28;20076;-76
2023/07/31 05:25:23;;;;;;;0.68;0.35;;;;;;;22.62;100.00;100798.28;10526107;28;20578;-77
2023/07/31 05:30:25;;;;;;;1.00;0.85;;;;;;;22.65;100.00;100789.47;10509050;28;20047;-77
2023/07/31 05:35:28;;;;;;;3.10;0.98;;;;;;;22.93;100.00;100781.72;10526300;28;20048;-76
2023/07/31 05:40:32;;;;;;;1.25;0.95;;;;;;;23.10;100.00;100778.59;10525688;28;20113;-76
2023/07/31 05:45:34;;;;;;;1.58;0.35;;;;;;;23.22;100.00;100771.28;10507992;28;20509;-75
2023/07/31 05:50:37;;;;;;;0.55;0.38;;;;;;;23.18;100.00;100774.91;10508751;28;20048;-76
2023/07/31 05:55:38;;;;;;;1.25;0.30;;;;;;;22.91;100.00;100782.63;10508511;28;20054;-77
2023/07/31 06:00:41;;;;;;;2.53;0.70;;;;;;;23.07;100.00;100776.03;10524728;28;20052;-75
2023/07/31 06:05:42;;;;;;;0.75;0.32;;;;;;;22.86;100.00;100771.38;10525256;28;20123;-76
2023/07/31 06:10:44;;;;;;;1.05;0.68;;;;;;;23.72;100.00;100771.53;10524199;28;20048;-76
2023/07/31 06:15:45;;;;;;;0.28;0.28;;;;;;;22.39;100.00;100763.88;10507237;28;20046;-78
2023/07/31 06:20:47;;;;;;;0.30;0.30;;;;;;;22.93;100.00;100765.94;10523750;28;20040;-78
2023/07/31 06:25:49;;;;;;;0.20;0.10;;;;;;;22.19;100.00;100763.44;10523364;28;20143;-78
2023/07/31 06:30:50;;;;;;;0.20;0.20;;;;;;;22.78;100.00;100761.09;10514458;28;20048;-78
2023/07/31 06:35:52;;;;;;;0.00;0.00;;;;;;;22.64;100.00;100753.59;10522484;28;20123;-78
2023/07/31 06:40:54;;;;;;;0.75;0.35;;;;;;;22.92;100.00;100748.47;10499898;28;20048;-78
2023/07/31 06:45:56;;;;;;;0.98;0.38;;;;;;;23.03;100.00;100744.63;10522132;28;20439;-78
2023/07/31 06:50:57;;;;;;;0.47;0.47;;;;;;;22.98;100.00;100739.50;10522385;28;20040;-77
2023/07/31 06:55:59;;;;;;;0.20;0.10;;;;;;;22.92;100.00;100737.94;10498590;28;20483;-78
2023/07/31 07:01:01;;;;;;;0.40;0.35;;;;;;;22.66;100.00;100731.63;10505160;28;20044;-78
2023/07/31 07:06:03;;;;;;;0.65;0.35;;;;;;;22.88;100.00;100730.19;10532879;28;20368;-78
2023/07/31 07:11:04;;;;;;;0.10;0.10;;;;;;;22.15;100.00;100714.56;10505161;28;20058;-77
2023/07/31 07:16:06;;;;;;;0.98;0.30;;;;;;;22.25;100.00;100709.97;10521768;28;20040;-77
2023/07/31 07:21:08;;;;;;;0.13;0.10;;;;;;;22.64;100.00;100717.69;10521411;28;20062;-78
2023/07/31 07:26:10;;;;;;;0.22;0.22;;;;;;;22.21;100.00;100717.94;10485927;28;20048;-78
2023/07/31 07:31:11;;;;;;;0.70;0.20;;;;;;;22.62;100.00;100703.75;10537523;28;20047;-79
2023/07/31 07:36:13;;;;;;;1.23;0.93;;;;;;;22.32;100.00;100706.28;10520655;28;20044;-78
2023/07/31 07:41:15;;;;;;;0.20;0.08;;;;;;;22.72;100.00;100698.22;10520737;28;20058;-78
2023/07/31 07:46:17;;;;;;;0.00;0.00;;;;;;;22.77;100.00;100702.47;10520971;28;20124;-77
2023/07/31 07:51:18;;;;;;;0.10;0.10;;;;;;;23.32;100.00;100686.00;10504109;28;20044;-78
2023/07/31 07:56:20;;;;;;;0.00;0.00;;;;;;;22.47;100.00;100696.31;10504115;28;20040;-78
2023/07/31 08:01:22;;;;;;;0.05;0.05;;;;;;;23.00;100.00;100689.56;10520580;28;20054;-78
2023/07/31 08:06:24;;;;;;;0.00;0.00;;;;;;;22.63;100.00;100688.84;10524849;28;20050;-78
2023/07/31 08:11:25;;;;;;;0.00;0.00;;;;;;;22.39;100.00;100679.91;10528410;28;20043;-78
2023/07/31 08:16:27;;;;;;;0.10;0.10;;;;;;;23.06;100.00;100671.00;10528035;28;20048;-79
2023/07/31 08:21:29;;;;;;;0.45;0.20;;;;;;;22.70;100.00;100661.53;10497647;28;20127;-78
2023/07/31 08:26:32;;;;;;;0.15;0.00;;;;;;;22.96;100.00;100667.78;10520630;28;20048;-78
2023/07/31 08:31:34;;;;;;;0.38;0.10;;;;;;;23.00;100.00;100660.69;10510731;28;20075;-78
2023/07/31 08:36:36;;;;;;;0.10;0.00;;;;;;;22.97;100.00;100666.91;10527389;28;20040;-78
2023/07/31 08:41:41;;;;;;;0.10;0.08;;;;;;;23.28;100.00;100655.47;10499355;28;20076;-78
2023/07/31 08:46:44;;;;;;;0.68;0.15;;;;;;;23.58;100.00;100660.66;10494079;28;20119;-78
2023/07/31 08:51:46;;;;;;;0.90;0.65;;;;;;;23.13;100.00;100652.38;10524496;28;20418;-78
2023/07/31 08:56:49;;;;;;;0.10;0.08;;;;;;;22.89;100.00;100661.00;10505017;28;20054;-79
2023/07/31 09:01:55;;;;;;;0.40;0.10;;;;;;;23.07;100.00;100657.81;10509722;28;20059;-78
2023/07/31 09:07:03;;;;;;;0.00;0.00;;;;;;;23.08;100.00;100659.53;10510327;28;20447;-79
2023/07/31 09:12:08;;;;;;;0.00;0.00;;;;;;;23.31;100.00;100657.16;10544897;28;20048;-78
2023/07/31 09:17:10;;;;;;;0.30;0.22;;;;;;;22.80;100.00;100657.72;10525569;28;20395;-78
2023/07/31 09:22:12;;;;;;;0.10;0.00;;;;;;;23.01;100.00;100647.50;10509490;28;20048;-78
2023/07/31 09:27:14;;;;;;;0.00;0.00;;;;;;;23.39;100.00;100642.84;10525279;28;20040;-78
2023/07/31 09:32:17;;;;;;;0.00;0.00;;;;;;;23.12;100.00;100645.38;10524925;28;20055;-77
2023/07/31 09:37:18;;;;;;;0.35;0.20;;;;;;;23.84;100.00;100635.28;10524958;28;20075;-77
2023/07/31 09:42:26;;;;;;;0.50;0.20;;;;;;;23.07;100.00;100636.78;10525295;28;20471;-78
2023/07/31 09:47:28;;;;;;;0.10;0.10;;;;;;;23.17;100.00;100628.63;10524560;28;20040;-76
2023/07/31 09:52:30;;;;;;;0.08;0.08;;;;;;;23.35;100.00;100629.84;10522227;28;20044;-77
2023/07/31 09:57:33;;;;;;;0.28;0.28;;;;;;;22.94;100.00;100635.44;10507712;28;20497;-77
2023/07/31 10:02:36;;;;;;;0.10;0.10;;;;;;;22.95;100.00;100621.41;10528326;28;20055;-77
2023/07/31 10:07:41;;;;;;;0.55;0.25;;;;;;;22.81;100.00;100635.81;10523730;28;20044;-76
2023/07/31 10:12:45;;;;;;;0.15;0.10;;;;;;;23.32;100.00;100624.69;10484780;28;20062;-77
2023/07/31 10:17:48;;;;;;;0.00;0.00;;;;;;;22.96;100.00;100629.25;10523935;28;20502;-77
2023/07/31 10:22:51;;;;;;;0.00;0.00;;;;;;;23.05;100.00;100632.50;10523985;28;20044;-76
2023/07/31 10:27:54;;;;;;;0.32;0.20;;;;;;;23.30;100.00;100630.00;10523262;28;20040;-76
2023/07/31 10:32:56;;;;;;;0.85;0.35;;;;;;;22.51;100.00;100637.53;10523052;28;20054;-78
2023/07/31 10:38:12;;;;;;;0.38;0.20;;;;;;;22.91;100.00;100630.28;10523377;28;20061;-77
2023/07/31 10:43:30;;;;;;;0.15;0.13;;;;;;;23.32;100.00;100625.56;10523026;28;20039;-77
2023/07/31 10:48:33;;;;;;;0.52;0.20;;;;;;;22.91;100.00;100635.53;10541306;28;20039;-76
2023/07/31 10:53:36;;;;;;;0.20;0.20;;;;;;;23.34;100.00;100623.75;10522299;28;20143;-76
2023/07/31 10:58:38;;;;;;;0.22;0.20;;;;;;;23.40;100.00;100623.53;10505674;28;20048;-77
2023/07/31 11:03:46;;;;;;;0.40;0.28;;;;;;;23.52;100.00;100617.03;10505980;28;20410;-76
2023/07/31 11:08:50;;;;;;;3.30;1.13;;;;;;;23.85;100.00;100610.69;10521480;28;20051;-77
2023/07/31 11:13:53;;;;;;;0.28;0.28;;;;;;;24.03;100.00;100603.97;10540040;28;20044;-77
2023/07/31 11:18:55;;;;;;;0.40;0.15;;;;;;;24.11;100.00;100606.31;10529823;28;20067;-77
2023/07/31 11:23:57;;;;;;;0.50;0.30;;;;;;;24.69;100.00;100595.44;10521137;28;20044;-76
2023/07/31 11:29:10;;;;;;;0.80;0.75;;;;;;;23.78;100.00;100604.75;10493101;28;20078;-76
2023/07/31 11:34:12;;;;;;;0.47;0.38;;;;;;;24.34;100.00;100594.97;10508365;28;20525;-77
2023/07/31 11:39:13;;;;;;;1.27;0.77;;;;;;;24.82;100.00;100590.56;10528007;28;20105;-76
2023/07/31 11:44:15;;;;;;;0.75;0.52;;;;;;;24.27;100.00;100589.06;10520933;28;20422;-77
2023/07/31 11:49:27;;;;;;;0.00;0.00;;;;;;;24.04;100.00;100598.63;10505601;28;20075;-76
2023/07/31 11:54:29;;;;;;;1.13;1.02;;;;;;;24.37;100.00;100600.97;10537253;28;20524;-75
2023/07/31 11:59:31;;;;;;;0.30;0.20;;;;;;;24.39;100.00;100599.13;10520392;28;20040;-76
2023/07/31 12:04:32;;;;;;;0.65;0.57;;;;;;;23.98;100.00;100604.13;10503320;28;20085;-76
2023/07/31 12:09:34;;;;;;;0.55;0.40;;;;;;;24.40;100.00;100595.59;10520180;28;20056;-75
2023/07/31 12:14:41;;;;;;;0.93;0.50;;;;;;;24.19;100.00;100585.84;10520182;28;20483;-76
2023/07/31 12:19:43;;;;;;;0.55;0.55;;;;;;;23.61;100.00;100600.09;10520017;28;20499;-77
2023/07/31 12:24:45;;;;;;;0.60;0.38;;;;;;;24.04;100.00;100588.09;10520061;28;20036;-76
2023/07/31 12:29:46;;;;;;;0.63;0.22;;;;;;;24.10;100.00;100591.44;10512838;28;20052;-75
2023/07/31 12:34:48;;;;;;;0.10;0.10;;;;;;;24.47;100.00;100584.81;10519215;28;20048;-76
2023/07/31 12:39:50;;;;;;;0.70;0.63;;;;;;;24.69;100.00;100572.59;10537747;28;20127;-75
2023/07/31 12:44:51;;;;;;;0.85;0.20;;;;;;;24.72;100.00;100571.63;10502617;28;20384;-77
2023/07/31 12:49:53;;;;;;;2.83;0.50;;;;;;;24.69;100.00;100569.94;10519047;28;20483;-76
2023/07/31 12:54:54;;;;;;;0.10;0.10;;;;;;;25.03;100.00;100563.38;10525456;28;20509;-76
2023/07/31 12:59:56;;;;;;;0.50;0.22;;;;;;;24.19;100.00;100556.88;10527006;28;20392;-76
2023/07/31 13:04:58;;;;;;;0.28;0.17;;;;;;;24.89;100.00;100555.16;10526563;28;20422;-75
2023/07/31 13:09:59;;;;;;;0.30;0.22;;;;;;;24.50;100.00;100547.84;10526782;28;20081;-76
2023/07/31 13:15:01;;;;;;;0.03;0.03;;;;;;;25.12;100.00;100542.84;10526213;28;20040;-75
2023/07/31 13:20:03;;;;;;;0.43;0.43;;;;;;;24.69;100.00;100540.97;10509133;28;20514;-76
2023/07/31 13:25:06;;;;;;;0.13;0.13;;;;;;;24.83;100.00;100529.06;10525856;28;20051;-76
2023/07/31 13:30:08;;;;;;;0.20;0.20;;;;;;;24.25;100.00;100527.72;10526389;28;20044;-76
2023/07/31 13:35:11;;;;;;;0.00;0.00;;;;;;;25.03;100.00;100537.03;10533317;28;20044;-75
2023/07/31 13:40:12;;;;;;;1.00;0.20;;;;;;;25.55;100.00;100538.44;10524654;28;20461;-76
2023/07/31 13:45:14;;;;;;;0.43;0.17;;;;;;;25.83;100.00;100541.69;10526942;28;20067;-76
2023/07/31 13:50:16;;;;;;;0.17;0.17;;;;;;;25.57;100.00;100539.25;10512912;28;20510;-76
2023/07/31 13:55:18;;;;;;;0.00;0.00;;;;;;;25.82;100.00;100546.06;10507603;28;20049;-76
2023/07/31 14:00:20;;;;;;;0.20;0.17;;;;;;;25.61;100.00;100532.91;10522590;28;20135;-76
2023/07/31 14:05:21;;;;;;;1.55;0.28;;;;;;;24.47;100.00;100532.16;10538816;28;20048;-76
2023/07/31 14:10:23;;;;;;;0.00;0.00;;;;;;;24.91;100.00;100526.13;10523824;28;20056;-76
2023/07/31 14:15:24;;;;;;;0.43;0.22;;;;;;;25.50;100.00;100519.34;10506576;28;20483;-75
2023/07/31 14:20:26;;;;;;;0.20;0.10;;;;;;;25.12;100.00;100509.44;10540533;28;20040;-75
2023/07/31 14:25:28;;;;;;;0.10;0.10;;;;;;;24.67;100.00;100505.09;10523526;28;20078;-76
2023/07/31 14:30:30;;;;;;;0.43;0.22;;;;;;;24.39;100.00;100504.34;10505882;28;20058;-76
2023/07/31 14:35:31;;;;;;;1.05;0.55;;;;;;;24.87;100.00;100504.31;10522631;28;20097;-76
2023/07/31 14:40:33;;;;;;;1.55;0.45;;;;;;;24.77;100.00;100508.22;10505497;28;20072;-77
2023/07/31 14:45:35;;;;;;;0.32;0.30;;;;;;;24.46;100.00;100509.41;10501335;28;20131;-77
2023/07/31 14:50:37;;;;;;;1.30;0.30;;;;;;;25.52;100.00;100490.25;10533569;28;20399;-76
2023/07/31 14:55:39;;;;;;;0.52;0.30;;;;;;;24.66;100.00;100485.81;10540192;28;20123;-76
2023/07/31 15:00:40;;;;;;;0.90;0.35;;;;;;;24.59;100.00;100486.94;10521963;28;20059;-77
2023/07/31 15:05:43;;;;;;;1.27;0.40;;;;;;;24.87;100.00;100491.97;10509541;28;20479;-76
2023/07/31 15:10:44;;;;;;;0.73;0.57;;;;;;;24.00;100.00;100501.44;10521579;28;20046;-77
2023/07/31 15:15:46;;;;;;;0.50;0.20;;;;;;;23.50;100.00;100491.78;10520262;28;20055;-78
2023/07/31 15:20:48;;;;;;;0.95;0.52;;;;;;;23.53;100.00;100482.00;10492466;28;20045;-77
2023/07/31 15:25:49;;;;;;;0.95;0.35;;;;;;;24.02;100.00;100458.38;10481334;28;20398;-77
2023/07/31 15:30:51;;;;;;;1.45;0.75;;;;;;;23.93;100.00;100464.00;10520541;28;20048;-76
2023/07/31 15:35:55;;;;;;;0.25;0.15;;;;;;;24.36;100.00;100446.56;10520682;28;20042;-77
2023/07/31 15:40:57;;;;;;;0.28;0.25;;;;;;;24.49;100.00;100435.53;10520775;28;20052;-77
2023/07/31 15:45:58;;;;;;;0.38;0.15;;;;;;;23.83;100.00;100425.75;10520175;28;20040;-76
2023/07/31 15:51:01;;;;;;;0.55;0.52;;;;;;;23.58;100.00;100429.25;10520572;28;20044;-77
2023/07/31 15:56:03;;;;;;;0.52;0.28;;;;;;;23.71;100.00;100411.28;10504204;28;20052;-78
2023/07/31 16:01:04;;;;;;;0.20;0.20;;;;;;;24.05;100.00;100403.00;10520124;28;20474;-77
2023/07/31 16:06:06;;;;;;;0.10;0.10;;;;;;;24.06;100.00;100390.69;10520421;28;20043;-76
2023/07/31 16:11:09;;;;;;;4.20;1.35;;;;;;;24.05;100.00;100384.59;10537771;28;20047;-76
2023/07/31 16:16:10;;;;;;;0.90;0.90;;;;;;;23.28;100.00;100392.63;10538255;28;20032;-77
2023/07/31 16:21:20;;;;;;;1.65;0.88;;;;;;;24.14;100.00;100378.09;10530650;28;20044;-76
2023/07/31 16:26:22;;;;;;;0.25;0.22;;;;;;;23.95;100.00;100383.22;10522313;28;20070;-76
2023/07/31 16:31:24;;;;;;;0.63;0.40;;;;;;;24.47;100.00;100358.38;10511231;28;20052;-77
2023/07/31 16:36:26;;;;;;;0.47;0.20;;;;;;;24.05;100.00;100358.28;10527495;28;20418;-77
2023/07/31 16:41:28;;;;;;;0.28;0.20;;;;;;;23.41;100.00;100341.38;10527628;28;20044;-77
2023/07/31 16:46:30;;;;;;;0.28;0.10;;;;;;;23.92;100.00;100336.81;10510332;28;20044;-77
2023/07/31 16:51:32;;;;;;;0.10;0.10;;;;;;;23.84;100.00;100324.88;10527854;28;20124;-76
2023/07/31 16:56:34;;;;;;;0.20;0.20;;;;;;;24.22;100.00;100307.59;10526965;28;20116;-76
2023/07/31 17:01:53;;;;;;;0.63;0.53;;;;;;;23.89;100.00;100307.13;10528515;28;20154;-77
2023/07/31 17:06:57;;;;;;;0.10;0.10;;;;;;;23.55;100.00;100300.56;10509558;28;20089;-77
2023/07/31 17:11:59;;;;;;;0.20;0.10;;;;;;;23.30;100.00;100301.47;10524739;28;20047;-78
2023/07/31 17:17:01;;;;;;;0.10;0.10;;;;;;;23.73;100.00;100294.59;10509372;28;20048;-78
2023/07/31 17:22:03;;;;;;;0.25;0.20;;;;;;;23.48;100.00;100299.09;10525264;28;20097;-77
2023/07/31 17:27:04;;;;;;;0.20;0.20;;;;;;;23.70;100.00;100304.38;10508344;28;20048;-77
2023/07/31 17:32:06;;;;;;;0.22;0.17;;;;;;;23.06;100.00;100298.78;10508491;28;20139;-79
2023/07/31 17:37:30;;;;;;;0.00;0.00;;;;;;;23.44;100.00;100288.66;10493206;28;20040;-79
2023/07/31 17:42:32;;;;;;;0.00;0.00;;;;;;;23.12;100.00;100280.16;10523318;28;20521;-78
2023/07/31 17:47:33;;;;;;;0.10;0.10;;;;;;;22.79;100.00;100285.72;10499209;28;20044;-78
2023/07/31 17:52:35;;;;;;;0.03;0.03;;;;;;;23.03;100.00;100266.50;10495442;28;20142;-77
2023/07/31 17:57:37;;;;;;;0.17;0.17;;;;;;;23.13;100.00;100263.50;10524255;28;20063;-78
2023/07/31 18:02:39;;;;;;;0.00;0.00;;;;;;;23.28;100.00;100259.47;10533756;28;20041;-79
2023/07/31 18:07:41;;;;;;;0.00;0.00;;;;;;;22.89;100.00;100254.75;10512339;28;20126;-79
2023/07/31 18:12:42;;;;;;;0.20;0.10;;;;;;;23.37;100.00;100249.53;10509207;28;20079;-79
2023/07/31 18:17:44;;;;;;;0.57;0.10;;;;;;;22.85;100.00;100242.63;10507743;28;20055;-78
2023/07/31 18:22:46;;;;;;;0.00;0.00;;;;;;;23.40;100.00;100239.78;10505274;28;20441;-77
2023/07/31 18:27:47;;;;;;;0.00;0.00;;;;;;;23.52;100.00;100227.06;10521628;28;20083;-78
2023/07/31 18:32:49;;;;;;;0.00;0.00;;;;;;;22.97;100.00;100217.72;10498972;28;20429;-79
2023/07/31 18:37:51;;;;;;;0.00;0.00;;;;;;;23.65;100.00;100215.13;10539855;28;20079;-78
2023/07/31 18:42:53;;;;;;;0.00;0.00;;;;;;;23.06;100.00;100217.34;10521928;28;20065;-79
2023/07/31 18:47:55;;;;;;;0.10;0.00;;;;;;;;;;10521570;28;20034;-78
2023/07/31 18:52:57;;;;;;;0.00;0.00;;;;;;;23.34;100.00;100171.69;10520166;28;20134;-78
2023/07/31 18:57:58;;;;;;;0.00;0.00;;;;;;;23.04;100.00;100174.53;10539187;28;20048;-78
2023/07/31 19:03:00;;;;;;;0.00;0.00;;;;;;;23.09;100.00;100183.09;10504166;28;20051;-77
2023/07/31 19:08:04;;;;;;;0.00;0.00;;;;;;;23.77;100.00;100183.09;10520239;28;20032;-78
2023/07/31 19:13:06;;;;;;;0.00;0.00;;;;;;;24.08;100.00;100189.78;10520056;28;20533;-79
2023/07/31 19:18:08;;;;;;;0.00;0.00;;;;;;;23.16;100.00;100188.09;10519559;28;20052;-79
2023/07/31 19:23:10;;;;;;;0.00;0.00;;;;;;;24.34;100.00;100166.72;10520581;28;20063;-79
2023/07/31 19:28:13;;;;;;;0.20;0.20;;;;;;;24.56;100.00;100178.94;10502260;28;20513;-78
2023/07/31 19:33:15;;;;;;;0.00;0.00;;;;;;;24.66;100.00;100159.22;10518800;28;20052;-77
2023/07/31 19:38:16;;;;;;;0.15;0.10;;;;;;;23.94;100.00;100159.69;10501039;28;20075;-78
2023/07/31 19:43:18;;;;;;;0.22;0.20;;;;;;;23.87;100.00;100143.25;10501045;28;20048;-77
2023/07/31 19:48:23;;;;;;;0.10;0.00;;;;;;;23.38;100.00;100146.97;10514510;28;20487;-77
2023/07/31 19:53:24;;;;;;;0.00;0.00;;;;;;;23.66;100.00;100137.97;10517878;28;20159;-77
2023/07/31 19:58:27;;;;;;;0.03;0.00;;;;;;;23.54;100.00;100146.34;10512581;28;20044;-77
2023/07/31 20:03:28;;;;;;;0.00;0.00;;;;;;;23.30;100.00;100154.31;10507696;28;20098;-78
2023/07/31 20:08:30;;;;;;;0.00;0.00;;;;;;;23.66;100.00;100145.00;10507557;28;20043;-77
2023/07/31 20:13:32;;;;;;;0.08;0.05;;;;;;;23.64;100.00;100142.44;10527179;28;20051;-78
2023/07/31 20:18:33;;;;;;;0.00;0.00;;;;;;;23.43;100.00;100129.22;10509337;28;20079;-77
2023/07/31 20:23:37;;;;;;;0.20;0.00;;;;;;;23.29;100.00;100126.31;10509661;28;20044;-77
2023/07/31 20:28:44;;;;;;;0.00;0.00;;;;;;;23.37;100.00;100134.75;10523873;28;20046;-77
2023/07/31 20:33:45;;;;;;;0.00;0.00;;;;;;;23.46;100.00;100133.50;10510360;28;20138;-78
2023/07/31 20:38:47;;;;;;;0.13;0.08;;;;;;;22.96;100.00;100137.19;10509547;28;20422;-77
2023/07/31 20:43:49;;;;;;;0.05;0.05;;;;;;;23.12;100.00;100130.41;10509433;28;20071;-78
2023/07/31 20:48:50;;;;;;;0.30;0.10;;;;;;;23.47;100.00;100108.94;10533238;28;20039;-77
2023/07/31 20:53:52;;;;;;;0.13;0.13;;;;;;;23.38;100.00;100089.16;10526679;28;20040;-77
2023/07/31 20:58:54;;;;;;;0.30;0.10;;;;;;;23.04;100.00;100098.34;10533202;28;20044;-77
2023/07/31 21:03:55;;;;;;;0.15;0.10;;;;;;;22.95;100.00;100103.94;10542342;28;20048;-77
2023/07/31 21:08:57;;;;;;;0.57;0.57;;;;;;;22.52;100.00;100102.94;10508636;28;20065;-77
2023/07/31 21:14:00;;;;;;;0.00;0.00;;;;;;;22.45;100.00;100092.66;10540591;28;20473;-77
2023/07/31 21:19:01;;;;;;;0.00;0.00;;;;;;;22.22;100.00;100082.13;10524684;28;20490;-77
2023/07/31 21:24:03;;;;;;;0.20;0.10;;;;;;;22.63;100.00;100072.75;10524652;28;20478;-77
2023/07/31 21:29:05;;;;;;;0.00;0.00;;;;;;;22.53;100.00;100053.00;10531994;28;20040;-77
2023/07/31 21:34:06;;;;;;;0.00;0.00;;;;;;;22.66;100.00;100063.91;10512438;28;20399;-77
2023/07/31 21:39:08;;;;;;;0.00;0.00;;;;;;;22.71;100.00;100048.81;10545937;28;20046;-77
2023/07/31 21:44:09;;;;;;;0.15;0.08;;;;;;;22.27;100.00;100032.94;10518484;28;20051;-76
2023/07/31 21:49:11;;;;;;;0.00;0.00;;;;;;;22.96;100.00;100029.50;10523702;28;20044;-77
2023/07/31 21:54:13;;;;;;;17.95;0.30;;;;;;;22.52;100.00;100008.47;10540112;28;20050;-78
2023/07/31 21:59:14;;;;;;;0.00;0.00;;;;;;;23.16;100.00;99993.69;10506517;28;20048;-77
2023/07/31 22:04:16;;;;;;;0.00;0.00;;;;;;;22.96;100.00;99992.72;10507303;28;20047;-77
2023/07/31 22:09:21;;;;;;;0.85;0.00;;;;;;;23.25;100.00;99988.94;10506696;28;20101;-77
2023/07/31 22:14:23;;;;;;;0.00;0.00;;;;;;;22.95;100.00;99985.75;10505931;28;20044;-77
2023/07/31 22:19:26;;;;;;;0.20;0.00;;;;;;;22.77;100.00;99980.31;10505511;28;20380;-77
2023/07/31 22:24:28;;;;;;;0.00;0.00;;;;;;;22.95;100.00;99972.63;10531601;28;20097;-77
2023/07/31 22:29:29;;;;;;;0.38;0.25;;;;;;;22.61;100.00;99966.06;10504202;28;20047;-76
2023/07/31 22:34:32;;;;;;;0.00;0.00;;;;;;;22.60;100.00;99969.66;10504564;28;20132;-76
2023/07/31 22:39:35;;;;;;;0.00;0.00;;;;;;;23.01;100.00;99958.41;10521112;28;20494;-76
2023/07/31 22:44:36;;;;;;;1.02;0.65;;;;;;;23.00;100.00;99947.03;10521005;28;20055;-77
2023/07/31 22:49:38;;;;;;;0.00;0.00;;;;;;;22.84;100.00;99931.03;10520816;28;20060;-77
2023/07/31 22:54:40;;;;;;;0.47;0.10;;;;;;;22.93;100.00;99935.06;10521052;28;20048;-76